Time;durP1;ratioP1;P1;durP2;ratioP2;P2;SDS_P1;SDS_P2;PMS_P1;PMS_P2;Temp;Humidity;BMP_temperature;BMP_pressure;BME280_temperature;BME280_humidity;BME280_pressure;Samples;Min_cycle;Max_cycle;Signal;HPM_P1;HPM_P2
2024/04/13 00:12:55;;;;;;;11.37;4.00;;;;;;;16.49;45.88;100656.00;33540380;26;20000;-76
2024/04/13 00:27:58;;;;;;;15.37;4.30;;;;;;;16.54;45.42;100653.44;33548225;26;20076;-76
2024/04/13 00:43:06;;;;;;;13.20;4.97;;;;;;;16.23;47.39;100661.56;33553888;26;20004;-76
2024/04/13 00:58:11;;;;;;;10.63;4.07;;;;;;;16.05;47.38;100655.94;33541099;26;20463;-76
2024/04/13 01:13:16;;;;;;;21.60;4.67;;;;;;;16.01;47.86;100661.53;33522524;26;20003;-76
2024/04/13 01:28:18;;;;;;;16.20;5.23;;;;;;;15.81;48.81;100665.72;33536735;26;20241;-76
2024/04/13 01:43:21;;;;;;;14.20;5.30;;;;;;;15.58;50.28;100656.66;33521012;26;20241;-75
2024/04/13 01:58:23;;;;;;;18.27;5.40;;;;;;;15.57;50.48;100671.56;33533139;26;20467;-78
2024/04/13 02:13:27;;;;;;;14.07;5.93;;;;;;;15.46;51.34;100664.84;33575303;26;20004;-75
2024/04/13 02:28:30;;;;;;;15.47;5.10;;;;;;;15.16;53.01;100677.81;33569882;26;20019;-75
2024/04/13 02:43:32;;;;;;;14.50;6.17;;;;;;;15.28;53.83;100670.84;33512498;26;20039;-75
2024/04/13 02:58:35;;;;;;;11.77;5.33;;;;;;;15.50;54.76;100681.91;33547840;26;20494;-75
2024/04/13 03:13:38;;;;;;;14.03;5.73;;;;;;;15.46;56.58;100692.19;33562845;26;20106;-75
2024/04/13 03:28:40;;;;;;;15.03;4.93;;;;;;;15.35;58.27;100693.28;33528880;26;20466;-76
2024/04/13 03:43:43;;;;;;;13.40;5.13;;;;;;;15.44;64.79;100708.28;33585946;26;20043;-75
2024/04/13 03:58:47;;;;;;;17.47;5.03;;;;;;;15.81;64.84;100707.56;33530139;26;20001;-75
2024/04/13 04:13:49;;;;;;;10.90;5.03;;;;;;;16.25;62.78;100713.19;33512799;26;20015;-77
2024/04/13 04:28:51;;;;;;;11.93;5.20;;;;;;;16.85;62.48;100693.88;33550834;26;20007;-75
2024/04/13 07:16:57;;;;;;;23.52;4.38;;;;;;;25.98;45.47;100654.53;34124087;25;1536960;-73
2024/04/13 07:32:00;;;;;;;7.20;3.80;;;;;;;26.73;43.66;100655.88;33959573;26;20003;-76
2024/04/13 07:47:02;;;;;;;9.63;2.40;;;;;;;26.47;43.09;100647.22;33957024;26;20338;-77
2024/04/13 08:02:04;;;;;;;8.95;1.58;;;;;;;27.30;39.88;100637.47;33957369;26;20651;-77
2024/04/13 08:17:07;;;;;;;2.03;1.07;;;;;;;27.70;37.56;100616.25;33864186;26;20034;-77
2024/04/13 08:32:15;;;;;;;2.42;1.30;;;;;;;28.92;36.60;100612.28;33858926;26;20006;-77
2024/04/13 08:47:19;;;;;;;4.05;1.10;;;;;;;29.57;35.89;100592.00;33834950;26;20019;-76
2024/04/13 09:02:25;;;;;;;7.55;1.30;;;;;;;28.43;36.31;100590.19;33850442;26;20003;-76
2024/04/13 09:17:31;;;;;;;7.57;2.22;;;;;;;29.48;35.07;100556.88;33847782;26;20291;-76
2024/04/13 09:32:35;;;;;;;4.13;2.22;;;;;;;28.89;36.10;100554.66;33851501;26;20002;-74
2024/04/13 09:47:38;;;;;;;6.25;1.60;;;;;;;30.84;32.64;100520.38;33850320;26;20326;-74
2024/04/13 10:02:40;;;;;;;2.22;1.25;;;;;;;31.29;33.03;100510.75;33848156;26;20354;-73
2024/04/13 10:17:44;;;;;;;5.57;1.40;;;;;;;30.95;32.28;100496.88;33847243;26;20393;-74
2024/04/13 10:32:47;;;;;;;3.47;1.42;;;;;;;30.84;32.32;100483.94;33844724;26;20412;-75
2024/04/13 10:47:49;;;;;;;4.35;1.10;;;;;;;29.78;33.13;100466.19;33843045;26;20743;-74
2024/04/13 11:02:52;;;;;;;2.80;1.55;;;;;;;30.14;32.83;100455.94;33809377;26;20018;-74
2024/04/13 11:17:55;;;;;;;4.40;1.35;;;;;;;30.77;32.89;100439.06;33808594;26;20014;-74
2024/04/13 11:32:59;;;;;;;3.78;1.42;;;;;;;31.72;31.90;100433.50;33806261;26;20017;-73
2024/04/13 11:48:01;;;;;;;3.83;1.30;;;;;;;30.72;31.92;100411.94;33850656;26;20003;-74
2024/04/13 12:03:04;;;;;;;3.05;1.10;;;;;;;28.26;35.14;100405.47;33856605;26;20018;-74
2024/04/13 12:18:07;;;;;;;4.00;1.48;;;;;;;27.32;35.73;100375.69;33832147;26;20075;-73
2024/04/13 12:33:09;;;;;;;6.30;1.38;;;;;;;26.39;37.06;100356.81;33822015;26;20104;-73
2024/04/13 12:48:12;;;;;;;1.88;0.93;;;;;;;26.27;37.27;100342.22;33760771;26;20020;-73
2024/04/13 13:03:15;;;;;;;3.50;1.08;;;;;;;25.77;38.42;100337.88;33850590;26;20434;-75
2024/04/13 13:18:17;;;;;;;6.80;2.20;;;;;;;25.57;39.72;100343.06;33850301;26;20003;-73
2024/04/13 13:33:20;;;;;;;8.57;1.27;;;;;;;24.89;40.16;100339.13;33848978;26;20244;-74
2024/04/13 13:48:22;;;;;;;1.70;1.10;;;;;;;24.77;40.26;100335.69;33788830;26;20377;-73
2024/04/13 14:03:25;;;;;;;2.57;1.30;;;;;;;24.82;39.45;100321.75;33632213;21;19999;-74
2024/04/13 14:18:27;;;;;;;5.13;1.47;;;;;;;24.69;39.32;100307.69;33598957;26;20008;-74
2024/04/13 14:33:29;;;;;;;5.73;1.40;;;;;;;24.29;39.86;100319.44;33560694;26;20357;-74
2024/04/13 14:48:32;;;;;;;3.93;2.00;;;;;;;23.84;41.59;100324.25;33552723;26;20089;-73
2024/04/13 15:03:35;;;;;;;4.20;1.90;;;;;;;23.30;42.37;100311.34;33554850;26;20015;-74
2024/04/13 15:18:41;;;;;;;10.50;2.17;;;;;;;22.63;43.79;100322.19;33565842;26;20004;-73
2024/04/13 15:33:43;;;;;;;3.97;2.30;;;;;;;22.59;43.88;100327.19;33634248;26;20014;-76
2024/04/13 15:48:48;;;;;;;7.25;2.92;;;;;;;21.97;42.57;100339.81;33511153;26;20014;-74
2024/04/13 16:03:52;;;;;;;3.53;2.50;;;;;;;21.33;42.70;100359.59;33599527;26;20022;-75
2024/04/13 16:18:55;;;;;;;7.18;2.30;;;;;;;20.94;43.55;100357.13;33543808;26;20000;-75
2024/04/13 16:33:57;;;;;;;8.10;3.55;;;;;;;20.58;45.08;100374.97;33593601;26;20086;-74
2024/04/13 16:48:59;;;;;;;13.20;3.05;;;;;;;20.20;45.98;100391.66;33575310;26;19996;-74
2024/04/13 17:04:02;;;;;;;6.53;3.50;;;;;;;20.09;46.80;100398.50;33585044;26;20511;-76
2024/04/13 17:19:05;;;;;;;10.32;4.10;;;;;;;19.90;47.55;100404.69;33559254;26;20077;-76
2024/04/13 17:34:09;;;;;;;9.90;3.70;;;;;;;19.85;48.46;100413.63;33509987;26;20022;-76
2024/04/13 17:49:11;;;;;;;14.87;4.47;;;;;;;19.63;49.09;100422.25;33538227;26;20031;-75
2024/04/13 18:04:14;;;;;;;11.52;5.65;;;;;;;19.62;49.30;100428.97;33530457;26;20051;-74
2024/04/13 18:19:17;;;;;;;5.60;3.53;;;;;;;19.38;49.97;100429.75;33584958;26;20014;-76
2024/04/13 18:34:19;;;;;;;8.48;4.53;;;;;;;19.30;50.61;100436.88;33564751;26;20000;-75
2024/04/13 18:49:22;;;;;;;9.90;4.13;;;;;;;19.19;51.06;100438.63;33601062;26;20572;-74
2024/04/13 19:04:24;;;;;;;17.95;10.15;;;;;;;19.89;49.66;100414.19;33569511;26;20152;-74
2024/04/13 19:19:26;;;;;;;7.28;4.85;;;;;;;19.29;51.06;100405.06;33484429;26;20000;-75
2024/04/13 19:34:29;;;;;;;5.90;3.55;;;;;;;19.98;50.27;100406.59;33496418;26;20010;-75
2024/04/13 19:49:32;;;;;;;6.07;2.83;;;;;;;20.15;49.66;100419.91;33557420;26;20044;-74
2024/04/13 20:04:35;;;;;;;7.95;3.80;;;;;;;19.78;50.95;100411.25;33580703;26;20415;-73
2024/04/13 20:19:38;;;;;;;5.57;3.50;;;;;;;19.55;51.62;100412.84;33584489;26;20007;-74
2024/04/13 20:34:40;;;;;;;6.93;3.58;;;;;;;19.10;52.14;100403.69;33611899;26;20476;-72
2024/04/13 20:49:43;;;;;;;11.23;5.50;;;;;;;18.72;53.11;100405.13;33560126;26;20004;-73
2024/04/13 21:04:45;;;;;;;10.20;5.22;;;;;;;18.40;54.29;100403.16;33538302;26;20000;-73
2024/04/13 21:19:47;;;;;;;9.18;4.07;;;;;;;18.29;54.37;100397.38;33551321;26;20011;-73
2024/04/13 21:34:50;;;;;;;7.07;3.70;;;;;;;18.10;55.49;100388.44;33523780;26;20011;-74
2024/04/13 21:49:52;;;;;;;10.83;3.33;;;;;;;17.89;56.33;100384.69;33610590;26;20011;-73
2024/04/13 22:04:54;;;;;;;4.90;3.40;;;;;;;17.94;56.49;100397.81;33583546;26;20473;-72
2024/04/13 22:19:57;;;;;;;4.63;3.40;;;;;;;18.18;56.03;100383.38;33534935;26;20008;-73
2024/04/13 22:34:59;;;;;;;5.90;3.10;;;;;;;17.87;56.07;100380.88;33581398;26;20073;-73
2024/04/13 22:50:02;;;;;;;6.17;3.10;;;;;;;17.60;57.19;100384.41;33606343;26;20080;-72
2024/04/13 23:05:05;;;;;;;7.20;3.50;;;;;;;17.51;57.69;100373.41;33603518;26;20015;-73
2024/04/13 23:20:12;;;;;;;6.53;3.80;;;;;;;17.09;58.91;100365.06;33594108;26;20080;-72
2024/04/13 23:35:14;;;;;;;11.37;3.53;;;;;;;16.99;60.78;100370.53;33607031;26;20010;-73
2024/04/13 23:50:20;;;;;;;6.57;3.40;;;;;;;16.68;61.75;100365.16;33605929;26;20016;-73
